createdAt,value
2018-09-05T00:00:54.709Z,100560.23
2018-09-05T00:03:27.201Z,100558.52
2018-09-05T00:05:58.761Z,100563.70
2018-09-05T00:08:30.437Z,100560.95
2018-09-05T00:11:01.756Z,100561.48
2018-09-05T00:13:33.325Z,100565.59
2018-09-05T00:16:04.775Z,100565.47
2018-09-05T00:18:36.026Z,100565.47
2018-09-05T00:21:07.328Z,100563.77
2018-09-05T00:23:38.822Z,100564.63
2018-09-05T00:26:10.382Z,100561.89
2018-09-05T00:28:41.812Z,100556.30
2018-09-05T00:31:13.406Z,100555.19
2018-09-05T00:33:44.956Z,100562.80
2018-09-05T00:36:15.608Z,100568.09
2018-09-05T00:38:47.226Z,100562.08
2018-09-05T00:41:18.760Z,100559.53
2018-09-05T00:43:50.196Z,100563.74
2018-09-05T00:46:21.749Z,100559.95
2018-09-05T00:48:53.363Z,100559.41
2018-09-05T00:51:24.888Z,100564.17
2018-09-05T00:53:56.433Z,100555.65
2018-09-05T00:56:27.997Z,100558.45
2018-09-05T00:58:59.563Z,100557.09
2018-09-05T01:01:31.390Z,100556.78
2018-09-05T01:04:02.768Z,100556.78
2018-09-05T01:06:34.308Z,100544.22
2018-09-05T01:09:07.643Z,100546.55
2018-09-05T01:11:39.369Z,100547.61
2018-09-05T01:14:10.801Z,100550.24
2018-09-05T01:16:42.346Z,100541.14
2018-09-05T01:19:13.774Z,100556.31
2018-09-05T01:21:45.401Z,100558.03
2018-09-05T01:24:16.901Z,100555.81
2018-09-05T01:26:48.414Z,100558.67
2018-09-05T01:29:19.822Z,100557.49
2018-09-05T01:31:51.447Z,100558.86
2018-09-05T01:34:22.816Z,100557.38
2018-09-05T01:36:54.306Z,100564.22
2018-09-05T01:39:25.756Z,100556.84
2018-09-05T01:41:56.790Z,100557.56
2018-09-05T01:44:28.380Z,100564.09
2018-09-05T01:46:59.910Z,100560.64
2018-09-05T01:49:31.453Z,100559.27
2018-09-05T01:52:02.965Z,100560.64
2018-09-05T01:54:33.575Z,100561.36
2018-09-05T01:57:05.197Z,100569.57
2018-09-05T01:59:36.733Z,100561.05
2018-09-05T02:02:07.765Z,100556.30
2018-09-05T02:04:38.899Z,100563.45
2018-09-05T02:07:10.618Z,100560.18
2018-09-05T02:09:42.200Z,100558.72
2018-09-05T02:12:13.710Z,100561.21
2018-09-05T02:14:45.313Z,100562.36
2018-09-05T02:17:16.793Z,100560.80
2018-09-05T02:19:48.327Z,100564.38
2018-09-05T02:22:19.802Z,100563.85
2018-09-05T02:24:51.313Z,100557.60
2018-09-05T02:27:22.757Z,100565.44
2018-09-05T02:29:54.337Z,100568.36
2018-09-05T02:32:25.800Z,100567.18
2018-09-05T02:34:57.314Z,100576.70
2018-09-05T02:37:28.777Z,100578.06
2018-09-05T02:40:00.319Z,100579.31
2018-09-05T02:42:31.779Z,100570.57
2018-09-05T02:45:03.410Z,100576.58
2018-09-05T02:47:34.786Z,100575.39
2018-09-05T02:50:06.021Z,100573.00
2018-09-05T02:52:37.393Z,100574.02
2018-09-05T02:55:08.881Z,100570.45
2018-09-05T02:57:40.630Z,100570.79
2018-09-05T03:00:12.202Z,100573.19
2018-09-05T03:02:43.731Z,100574.24
2018-09-05T03:05:14.897Z,100570.14
2018-09-05T03:07:46.604Z,100571.16
2018-09-05T03:10:18.221Z,100574.55
2018-09-05T03:12:49.696Z,100574.55
2018-09-05T03:15:21.310Z,100577.63
2018-09-05T03:17:52.876Z,100574.77
2018-09-05T03:20:24.445Z,100573.06
2018-09-05T03:22:55.887Z,100572.87
2018-09-05T03:25:27.617Z,100572.03
2018-09-05T03:27:59.195Z,100575.80
2018-09-05T03:30:30.690Z,100576.33
2018-09-05T03:33:02.409Z,100581.68
2018-09-05T03:35:34.205Z,100582.52
2018-09-05T03:38:05.773Z,100579.47
2018-09-05T03:40:37.465Z,100582.52
2018-09-05T03:43:09.191Z,100584.41
2018-09-05T03:45:40.756Z,100590.07
2018-09-05T03:48:12.387Z,100580.25
2018-09-05T03:50:44.207Z,100587.02
2018-09-05T03:53:16.297Z,100591.26
2018-09-05T03:55:48.422Z,100593.34
2018-09-05T03:58:19.829Z,100597.25
2018-09-05T04:00:51.345Z,100593.16
2018-09-05T04:03:22.816Z,100597.97
2018-09-05T04:05:54.417Z,100595.95
2018-09-05T04:08:25.883Z,100600.45
2018-09-05T04:10:57.679Z,100606.98
2018-09-05T04:13:29.345Z,100601.39
2018-09-05T04:16:01.032Z,100604.97
2018-09-05T04:18:32.686Z,100608.81
2018-09-05T04:21:04.478Z,100609.78
2018-09-05T04:23:40.981Z,100610.84
2018-09-05T04:26:12.646Z,100614.07
2018-09-05T04:28:44.536Z,100610.05
2018-09-05T04:31:16.755Z,100612.70
2018-09-05T04:33:47.894Z,100616.19
2018-09-05T04:36:19.323Z,100618.13
2018-09-05T04:38:50.803Z,100625.81
2018-09-05T04:41:22.555Z,100622.95
2018-09-05T04:43:54.225Z,100623.61
2018-09-05T04:46:25.815Z,100623.48
2018-09-05T04:48:57.698Z,100621.92
2018-09-05T04:51:29.399Z,100627.84
2018-09-05T04:54:00.984Z,100629.92
2018-09-05T04:56:32.653Z,100631.25
2018-09-05T04:59:04.347Z,100633.23
2018-09-05T05:01:36.306Z,100637.47
2018-09-05T05:04:07.805Z,100636.63
2018-09-05T05:06:39.639Z,100638.34
2018-09-05T05:09:12.875Z,100637.34
2018-09-05T05:11:44.657Z,100643.16
2018-09-05T05:14:16.220Z,100647.31
2018-09-05T05:16:47.765Z,100641.84
2018-09-05T05:19:19.309Z,100644.17
2018-09-05T05:21:50.890Z,100649.65
2018-09-05T05:24:22.562Z,100647.97
2018-09-05T05:26:54.220Z,100647.78
2018-09-05T05:29:25.744Z,100648.10
2018-09-05T05:31:56.937Z,100652.73
2018-09-05T05:34:28.298Z,100655.47
2018-09-05T05:36:59.754Z,100655.47
2018-09-05T05:39:31.738Z,100650.70
2018-09-05T05:42:03.419Z,100651.10
2018-09-05T05:44:34.848Z,100658.91
2018-09-05T05:47:06.584Z,100662.30
2018-09-05T05:49:38.202Z,100661.25
2018-09-05T05:52:09.697Z,100661.25
2018-09-05T05:54:41.207Z,100670.95
2018-09-05T05:57:12.714Z,100659.17
2018-09-05T05:59:44.378Z,100663.27
2018-09-05T06:02:16.205Z,100672.14
2018-09-05T06:04:47.724Z,100672.45
2018-09-05T06:07:19.445Z,100679.95
2018-09-05T06:09:50.985Z,100674.53
2018-09-05T06:12:22.506Z,100678.58
2018-09-05T06:14:54.196Z,100680.92
2018-09-05T06:17:25.851Z,100682.16
2018-09-05T06:19:57.454Z,100677.87
2018-09-05T06:22:29.215Z,100685.86
2018-09-05T06:25:00.870Z,100685.16
2018-09-05T06:27:32.694Z,100685.99
2018-09-05T06:30:04.333Z,100681.89
2018-09-05T06:32:35.953Z,100683.60
2018-09-05T06:35:06.666Z,100682.36
2018-09-05T06:37:38.302Z,100686.25
2018-09-05T06:40:09.878Z,100677.08
2018-09-05T06:42:41.565Z,100681.30
2018-09-05T06:45:13.232Z,100687.96
2018-09-05T06:47:44.722Z,100682.41
2018-09-05T06:50:16.351Z,100682.53
2018-09-05T06:52:47.868Z,100680.02
2018-09-05T06:55:19.328Z,100680.51
2018-09-05T07:00:30.607Z,100681.63
2018-09-05T07:03:01.752Z,100686.05
2018-09-05T07:05:33.721Z,100685.87
2018-09-05T07:08:04.844Z,100683.63
2018-09-05T07:10:35.788Z,100682.26
2018-09-05T07:13:06.985Z,100681.55
2018-09-05T07:15:37.984Z,100683.31
2018-09-05T07:18:08.325Z,100684.50
2018-09-05T07:20:39.519Z,100681.77
2018-09-05T07:23:10.649Z,100685.87
2018-09-05T07:25:41.715Z,100687.36
2018-09-05T07:28:13.284Z,100685.34
2018-09-05T07:30:44.785Z,100693.55
2018-09-05T07:33:16.424Z,100689.09
2018-09-05T07:35:48.204Z,100695.23
2018-09-05T07:38:19.783Z,100690.72
2018-09-05T07:40:51.362Z,100697.70
2018-09-05T07:43:22.781Z,100693.80
2018-09-05T07:45:54.396Z,100694.77
2018-09-05T07:48:26.005Z,100700.77
2018-09-05T07:50:57.539Z,100695.92
2018-09-05T07:53:29.209Z,100698.88
2018-09-05T07:56:00.721Z,100703.30
2018-09-05T07:58:32.295Z,100708.71
2018-09-05T08:01:03.785Z,100710.48
2018-09-05T08:03:35.384Z,100707.22
2018-09-05T08:06:06.771Z,100705.85
2018-09-05T08:08:38.300Z,100705.85
2018-09-05T08:11:09.720Z,100706.63
2018-09-05T08:13:44.453Z,100705.39
2018-09-05T08:16:16.028Z,100700.81
2018-09-05T08:18:47.719Z,100702.59
2018-09-05T08:21:19.583Z,100700.94
2018-09-05T08:23:51.065Z,100697.17
2018-09-05T08:26:22.717Z,100706.89
2018-09-05T08:28:54.370Z,100701.16
2018-09-05T08:31:25.794Z,100708.25
2018-09-05T08:33:57.209Z,100701.91
2018-09-05T08:36:28.914Z,100704.77
2018-09-05T08:39:00.413Z,100703.03
2018-09-05T08:41:31.766Z,100702.28
2018-09-05T08:44:03.341Z,100705.77
2018-09-05T08:46:34.850Z,100706.08
2018-09-05T08:49:06.475Z,100707.51
2018-09-05T08:51:37.811Z,100706.39
2018-09-05T08:54:09.530Z,100702.63
2018-09-05T08:56:41.220Z,100703.03
2018-09-05T08:59:12.764Z,100703.40
2018-09-05T09:01:44.200Z,100691.30
2018-09-05T09:04:15.697Z,100706.73
2018-09-05T09:06:47.192Z,100709.13
2018-09-05T09:09:18.710Z,100706.08
2018-09-05T09:11:50.551Z,100704.05
2018-09-05T09:14:22.217Z,100706.27
2018-09-05T09:16:53.777Z,100708.81
2018-09-05T09:19:25.405Z,100702.91
2018-09-05T09:21:56.908Z,100703.40
2018-09-05T09:24:28.578Z,100705.95
2018-09-05T09:27:00.232Z,100704.89
2018-09-05T09:29:31.713Z,100700.41
2018-09-05T09:32:03.309Z,100701.41
2018-09-05T09:34:34.796Z,100700.54
2018-09-05T09:37:06.370Z,100701.91
2018-09-05T09:39:37.840Z,100706.80
2018-09-05T09:42:09.628Z,100700.60
2018-09-05T09:44:41.205Z,100697.55
2018-09-05T09:47:12.735Z,100693.70
2018-09-05T09:49:44.316Z,100693.35
2018-09-05T09:52:23.194Z,100689.09
2018-09-05T09:54:54.725Z,100691.42
2018-09-05T09:57:26.303Z,100686.26
2018-09-05T09:59:57.808Z,100685.48
2018-09-05T10:02:34.562Z,100682.55
2018-09-05T10:05:11.327Z,100678.26
2018-09-05T10:07:47.834Z,100682.95
2018-09-05T10:10:24.479Z,100684.08
2018-09-05T10:13:02.691Z,100673.69
2018-09-05T10:15:39.316Z,100674.28
2018-09-05T10:18:15.706Z,100666.06
2018-09-05T10:20:47.341Z,100671.66
2018-09-05T10:23:18.802Z,100661.34
2018-09-05T10:25:50.203Z,100660.93
2018-09-05T10:28:21.980Z,100665.88
2018-09-05T10:30:52.634Z,100660.93
2018-09-05T10:33:24.228Z,100655.52
2018-09-05T10:35:55.716Z,100658.59
2018-09-05T10:38:27.364Z,100662.42
2018-09-05T10:40:58.771Z,100659.34
2018-09-05T10:43:30.293Z,100649.27
2018-09-05T10:46:02.206Z,100653.80
2018-09-05T10:48:33.705Z,100650.87
2018-09-05T10:51:05.419Z,100645.03
2018-09-05T10:53:36.903Z,100646.90
2018-09-05T10:56:08.647Z,100639.34
2018-09-05T10:58:40.234Z,100636.41
2018-09-05T11:01:11.797Z,100638.38
2018-09-05T11:03:43.287Z,100636.82
2018-09-05T11:06:14.774Z,100631.53
2018-09-05T11:08:48.233Z,100630.47
2018-09-05T11:11:19.779Z,100623.20
2018-09-05T11:13:51.412Z,100615.80
2018-09-05T11:16:22.999Z,100618.03
2018-09-05T11:18:54.682Z,100619.73
2018-09-05T11:21:26.218Z,100610.88
2018-09-05T11:23:57.720Z,100619.62
2018-09-05T11:26:29.265Z,100610.28
2018-09-05T11:29:01.408Z,100613.30
2018-09-05T11:31:32.986Z,100607.17
2018-09-05T11:34:04.372Z,100611.81
2018-09-05T11:36:35.821Z,100602.23
2018-09-05T11:39:12.311Z,100602.66
2018-09-05T11:41:43.789Z,100596.94
2018-09-05T11:44:15.462Z,100600.73
2018-09-05T11:46:47.225Z,100600.21
2018-09-05T11:49:18.786Z,100602.95
2018-09-05T11:51:50.371Z,100601.17
2018-09-05T11:54:21.821Z,100596.23
2018-09-05T11:56:53.370Z,100595.88
2018-09-05T11:59:24.796Z,100597.91
2018-09-05T12:01:56.462Z,100596.34
2018-09-05T12:04:27.787Z,100590.88
2018-09-05T12:06:59.418Z,100590.34
2018-09-05T12:09:30.907Z,100588.32
2018-09-05T12:12:02.617Z,100588.73
2018-09-05T12:14:34.218Z,100588.73
2018-09-05T12:17:05.795Z,100586.52
2018-09-05T12:19:36.809Z,100591.28
2018-09-05T12:22:07.830Z,100587.67
2018-09-05T12:24:38.937Z,100589.38
2018-09-05T12:27:09.326Z,100589.38
2018-09-05T12:29:40.799Z,100584.09
2018-09-05T12:32:12.345Z,100587.17
2018-09-05T12:34:43.826Z,100584.62
2018-09-05T12:37:15.403Z,100577.25
2018-09-05T12:39:46.982Z,100572.00
2018-09-05T12:42:18.534Z,100572.00
2018-09-05T12:44:49.966Z,100570.28
2018-09-05T12:47:20.577Z,100572.00
2018-09-05T12:49:52.208Z,100567.55
2018-09-05T12:52:23.743Z,100560.70
2018-09-05T12:54:55.397Z,100557.97
2018-09-05T12:57:26.889Z,100555.88
2018-09-05T12:59:58.439Z,100556.94
2018-09-05T13:02:29.858Z,100552.50
2018-09-05T13:05:01.338Z,100547.36
2018-09-05T13:07:32.862Z,100551.59
2018-09-05T13:10:04.362Z,100547.27
2018-09-05T13:12:35.742Z,100543.28
2018-09-05T13:15:07.556Z,100540.88
2018-09-05T13:17:39.207Z,100541.60
2018-09-05T13:20:10.745Z,100545.17
2018-09-05T13:22:42.412Z,100535.06
2018-09-05T13:25:13.837Z,100544.12
2018-09-05T13:27:45.325Z,100541.38
2018-09-05T13:30:16.982Z,100536.97
2018-09-05T13:32:48.552Z,100540.77
2018-09-05T13:35:20.239Z,100537.80
2018-09-05T13:37:51.535Z,100536.78
2018-09-05T13:40:22.651Z,100535.84
2018-09-05T13:42:53.731Z,100549.59
2018-09-05T13:45:25.356Z,100528.03
2018-09-05T13:47:56.823Z,100534.53
2018-09-05T13:50:28.357Z,100524.00
2018-09-05T13:52:59.804Z,100527.50
2018-09-05T13:55:30.800Z,100521.31
2018-09-05T13:58:02.037Z,100526.78
2018-09-05T14:00:33.664Z,100522.34
2018-09-05T14:03:05.225Z,100512.14
2018-09-05T14:05:36.715Z,100520.54
2018-09-05T14:08:08.781Z,100512.02
2018-09-05T14:10:39.901Z,100514.22
2018-09-05T14:13:11.307Z,100517.80
2018-09-05T14:15:42.926Z,100520.01
2018-09-05T14:18:20.853Z,100516.96
2018-09-05T14:20:52.413Z,100514.11
2018-09-05T14:23:24.326Z,100509.28
2018-09-05T14:25:55.786Z,100512.64
2018-09-05T14:28:27.042Z,100517.27
2018-09-05T14:30:58.836Z,100510.42
2018-09-05T14:33:30.248Z,100509.06
2018-09-05T14:36:01.519Z,100506.33
2018-09-05T14:38:33.212Z,100505.48
2018-09-05T14:41:04.759Z,100508.22
2018-09-05T14:43:35.769Z,100504.42
2018-09-05T14:46:07.046Z,100502.22
2018-09-05T14:48:38.801Z,100502.75
2018-09-05T14:51:10.376Z,100496.96
2018-09-05T14:53:41.761Z,100492.52
2018-09-05T14:56:13.325Z,100491.75
2018-09-05T14:58:44.851Z,100494.22
2018-09-05T15:01:16.210Z,100493.16
2018-09-05T15:03:47.810Z,100492.86
2018-09-05T15:06:19.362Z,100492.33
2018-09-05T15:08:50.805Z,100495.59
2018-09-05T15:11:22.320Z,100477.87
2018-09-05T15:13:53.826Z,100490.42
2018-09-05T15:16:25.429Z,100490.42
2018-09-05T15:18:57.223Z,100493.16
2018-09-05T15:21:28.717Z,100489.90
2018-09-05T15:24:00.246Z,100481.91
2018-09-05T15:26:31.703Z,100485.27
2018-09-05T15:29:03.411Z,100477.58
2018-09-05T15:31:34.863Z,100480.97
2018-09-05T15:34:06.214Z,100478.11
2018-09-05T15:36:37.726Z,100475.91
2018-09-05T15:39:12.320Z,100473.35
2018-09-05T15:41:43.841Z,100472.52
2018-09-05T15:44:15.446Z,100473.70
2018-09-05T15:46:46.866Z,100471.98
2018-09-05T15:49:18.577Z,100470.73
2018-09-05T15:51:54.317Z,100463.05
2018-09-05T15:54:27.422Z,100468.22
2018-09-05T15:56:58.915Z,100468.72
2018-09-05T15:59:29.549Z,100461.88
2018-09-05T16:02:01.323Z,100467.35
2018-09-05T16:04:32.858Z,100463.77
2018-09-05T16:07:04.440Z,100461.38
2018-09-05T16:09:35.908Z,100459.14
2018-09-05T16:12:06.595Z,100454.53
2018-09-05T16:14:38.327Z,100460.84
2018-09-05T16:17:09.882Z,100460.01
2018-09-05T16:19:41.623Z,100458.30
2018-09-05T16:22:13.226Z,100456.93
2018-09-05T16:24:44.745Z,100454.19
2018-09-05T16:27:16.312Z,100456.02
2018-09-05T16:29:47.878Z,100454.00
2018-09-05T16:32:19.553Z,100456.21
2018-09-05T16:34:50.872Z,100456.21
2018-09-05T16:37:22.520Z,100454.53
2018-09-05T16:39:54.510Z,100454.84
2018-09-05T16:42:26.217Z,100451.45
2018-09-05T16:44:57.814Z,100453.89
2018-09-05T16:47:29.265Z,100454.00
2018-09-05T16:50:00.833Z,100455.91
2018-09-05T16:52:32.483Z,100460.31
2018-09-05T16:55:04.222Z,100458.95
2018-09-05T16:57:35.712Z,100459.25
2018-09-05T17:00:07.703Z,100457.88
2018-09-05T17:02:39.357Z,100458.88
2018-09-05T17:05:11.209Z,100456.56
2018-09-05T17:07:42.692Z,100459.18
2018-09-05T17:10:14.317Z,100459.00
2018-09-05T17:12:46.201Z,100457.17
2018-09-05T17:15:17.784Z,100458.20
2018-09-05T17:17:48.822Z,100464.06
2018-09-05T17:20:19.896Z,100456.48
2018-09-05T17:22:52.359Z,100461.43
2018-09-05T17:25:23.867Z,100460.89
2018-09-05T17:27:55.362Z,100462.27
2018-09-05T17:30:26.772Z,100456.98
2018-09-05T17:32:58.324Z,100457.97
2018-09-05T17:35:29.803Z,100453.11
2018-09-05T17:38:01.537Z,100455.84
2018-09-05T17:40:33.215Z,100456.19
2018-09-05T17:43:05.755Z,100456.91
2018-09-05T17:45:38.456Z,100447.97
2018-09-05T17:48:09.754Z,100458.23
2018-09-05T17:50:41.397Z,100446.91
2018-09-05T17:53:12.781Z,100455.69
2018-09-05T17:55:44.333Z,100456.45
2018-09-05T17:58:16.205Z,100458.16
2018-09-05T18:00:47.734Z,100457.20
2018-09-05T18:03:19.317Z,100455.42
2018-09-05T18:05:52.871Z,100457.02
2018-09-05T18:08:24.448Z,100463.33
2018-09-05T18:10:55.790Z,100463.22
2018-09-05T18:13:27.215Z,100467.25
2018-09-05T18:15:58.701Z,100457.35
2018-09-05T18:18:30.318Z,100465.98
2018-09-05T18:21:01.753Z,100472.30
2018-09-05T18:23:33.378Z,100470.20
2018-09-05T18:26:04.900Z,100473.98
2018-09-05T18:28:36.364Z,100474.85
2018-09-05T18:31:07.771Z,100473.91
2018-09-05T18:33:39.559Z,100466.97
2018-09-05T18:36:11.204Z,100474.09
2018-09-05T18:38:42.683Z,100475.80
2018-09-05T18:41:14.228Z,100476.75
2018-09-05T18:43:45.813Z,100472.45
2018-09-05T18:46:17.366Z,100469.70
2018-09-05T18:48:48.771Z,100471.47
2018-09-05T18:51:20.397Z,100465.80
2018-09-05T18:53:51.810Z,100465.59
2018-09-05T18:56:23.330Z,100465.82
2018-09-05T18:58:55.222Z,100463.58
2018-09-05T19:01:26.716Z,100469.06
2018-09-05T19:03:58.226Z,100470.66
2018-09-05T19:06:29.833Z,100468.23
2018-09-05T19:09:01.714Z,100461.69
2018-09-05T19:11:34.643Z,100468.84
2018-09-05T19:14:06.025Z,100460.51
2018-09-05T19:16:37.627Z,100464.42
2018-09-05T19:19:09.206Z,100462.10
2018-09-05T19:21:40.754Z,100462.21
2018-09-05T19:24:12.220Z,100454.61
2018-09-05T19:26:43.695Z,100462.22
2018-09-05T19:29:15.017Z,100455.03
2018-09-05T19:31:46.989Z,100463.47
2018-09-05T19:34:18.729Z,100462.44
2018-09-05T19:36:50.383Z,100464.84
2018-09-05T19:39:22.771Z,100459.48
2018-09-05T19:41:55.205Z,100456.93
2018-09-05T19:44:27.206Z,100457.37
2018-09-05T19:46:58.708Z,100462.63
2018-09-05T19:49:30.207Z,100457.05
2018-09-05T19:52:01.955Z,100465.80
2018-09-05T19:54:32.545Z,100464.95
2018-09-05T19:57:04.183Z,100462.22
2018-09-05T19:59:35.816Z,100455.26
2018-09-05T20:02:07.224Z,100462.94
2018-09-05T20:04:38.666Z,100460.81
2018-09-05T20:07:10.198Z,100453.13
2018-09-05T20:09:41.693Z,100459.98
2018-09-05T20:12:13.216Z,100462.08
2018-09-05T20:14:44.677Z,100464.59
2018-09-05T20:17:16.399Z,100463.33
2018-09-05T20:19:48.009Z,100468.42
2018-09-05T20:22:19.614Z,100464.51
2018-09-05T20:24:51.193Z,100470.30
2018-09-05T20:27:22.792Z,100467.97
2018-09-05T20:29:54.464Z,100465.23
2018-09-05T20:32:26.209Z,100463.22
2018-09-05T20:34:57.709Z,100468.70
2018-09-05T20:37:29.242Z,100458.50
2018-09-05T20:40:00.812Z,100462.27
2018-09-05T20:42:32.197Z,100464.17
2018-09-05T20:45:03.440Z,100458.88
2018-09-05T20:47:34.787Z,100459.11
2018-09-05T20:50:06.307Z,100462.69
2018-09-05T20:52:37.725Z,100461.39
2018-09-05T20:55:10.352Z,100455.92
2018-09-05T20:57:41.842Z,100446.22
2018-09-05T21:00:13.233Z,100450.86
2018-09-05T21:02:44.708Z,100445.38
2018-09-05T21:05:16.368Z,100453.29
2018-09-05T21:07:47.838Z,100452.95
2018-09-05T21:10:19.196Z,100452.34
2018-09-05T21:12:50.734Z,100447.89
2018-09-05T21:15:22.209Z,100448.95
2018-09-05T21:17:53.828Z,100450.63
2018-09-05T21:20:25.406Z,100449.27
2018-09-05T21:22:56.735Z,100448.62
2018-09-05T21:25:27.759Z,100449.98
2018-09-05T21:27:58.708Z,100444.17
2018-09-05T21:30:30.225Z,100444.39
2018-09-05T21:33:01.680Z,100440.17
2018-09-05T21:35:33.294Z,100441.55
2018-09-05T21:38:04.770Z,100442.91
2018-09-05T21:40:36.310Z,100438.27
2018-09-05T21:43:07.802Z,100432.98
2018-09-05T21:45:39.448Z,100430.78
2018-09-05T21:48:10.759Z,100432.03
2018-09-05T21:50:42.221Z,100430.97
2018-09-05T21:53:13.776Z,100430.02
2018-09-05T21:55:45.200Z,100430.02
2018-09-05T21:58:16.730Z,100435.72
2018-09-05T22:00:50.329Z,100434.84
2018-09-05T22:03:23.034Z,100436.22
2018-09-05T22:05:54.659Z,100431.80
2018-09-05T22:08:27.490Z,100434.55
2018-09-05T22:11:02.668Z,100433.48
2018-09-05T22:13:33.952Z,100429.06
2018-09-05T22:16:05.522Z,100426.22
2018-09-05T22:18:36.892Z,100425.68
2018-09-05T22:21:08.641Z,100428.64
2018-09-05T22:23:39.970Z,100422.95
2018-09-05T22:26:11.628Z,100422.95
2018-09-05T22:28:43.212Z,100420.31
2018-09-05T22:31:21.544Z,100427.05
2018-09-05T22:33:52.999Z,100421.16
2018-09-05T22:36:24.511Z,100422.72
2018-09-05T22:38:55.874Z,100422.52
2018-09-05T22:41:27.394Z,100420.31
2018-09-05T22:44:21.650Z,100426.83
2018-09-05T22:47:16.328Z,100425.56
2018-09-05T22:51:21.560Z,100423.23
2018-09-05T22:55:50.213Z,100423.08
2018-09-05T23:04:07.310Z,100414.56
2018-09-05T23:08:53.425Z,100415.77
2018-09-05T23:12:45.969Z,100413.44
2018-09-05T23:15:39.830Z,100410.17
2018-09-05T23:19:36.820Z,100407.48
2018-09-05T23:22:07.801Z,100398.62
2018-09-05T23:24:38.826Z,100403.80
2018-09-05T23:27:10.299Z,100405.29
2018-09-05T23:29:41.580Z,100399.09
2018-09-05T23:32:12.645Z,100398.03
2018-09-05T23:34:43.697Z,100395.64
2018-09-05T23:37:14.729Z,100396.67
2018-09-05T23:39:45.829Z,100395.11
2018-09-05T23:42:16.828Z,100391.30
2018-09-05T23:44:47.852Z,100399.21
2018-09-05T23:47:18.850Z,100388.98
2018-09-05T23:49:49.862Z,100385.41
2018-09-05T23:52:20.870Z,100387.62
2018-09-05T23:54:51.775Z,100381.31
2018-09-05T23:57:22.822Z,100385.95
2018-09-05T23:59:53.859Z,100381.38
